Terminal Aerodrome Forecast
Issued by NWS

Home | Current Version | Previous Version | Text Only | Print | Product List | Glossary On
Versions: 1 2 3 4 5 6 7 8 9 10 11 12 13 14 15 16 17 18 19 20 21 22 23 24 25 26 27 28 29 30 31 32 33 34 35 36 37 38 39 40 41 42 43 44 45 46 47 48 49 50
000
FTUS43 KLOT 300200 AAA
TAFGYY
TAF AMD
KGYY 300228Z 3002/3024 32015G25KT P6SM OVC040
     FM300500 33017G26KT P6SM -SN SCT035 OVC045
     FM300800 34013G20KT P6SM SCT025 BKN035
     FM301500 33008KT P6SM SCT025 SCT150
     FM302200 27007KT P6SM SCT015 BKN100=

USA.gov is the U.S. government's official web portal to all federal, state and local government web resources and services.